createdAt,value
2023-04-26T00:00:13.306Z,2.69
2023-04-26T00:02:40.143Z,2.63
2023-04-26T00:05:07.854Z,2.56
2023-04-26T00:07:35.449Z,2.56
2023-04-26T00:10:02.025Z,2.81
2023-04-26T00:12:28.705Z,2.88
2023-04-26T00:14:55.316Z,2.63
2023-04-26T00:17:23.871Z,2.50
2023-04-26T00:19:51.059Z,2.44
2023-04-26T00:22:17.669Z,2.31
2023-04-26T00:24:44.399Z,2.25
2023-04-26T00:27:11.052Z,2.31
2023-04-26T00:29:37.845Z,2.25
2023-04-26T00:32:04.705Z,2.19
2023-04-26T00:34:35.960Z,2.13
2023-04-26T00:37:03.763Z,2.13
2023-04-26T00:39:31.120Z,2.06
2023-04-26T00:41:58.125Z,2.00
2023-04-26T00:44:24.772Z,1.88
2023-04-26T00:46:53.308Z,1.88
2023-04-26T00:49:24.103Z,1.75
2023-04-26T00:51:53.382Z,1.75
2023-04-26T00:54:21.309Z,1.69
2023-04-26T00:56:48.112Z,1.63
2023-04-26T00:59:14.780Z,1.56
2023-04-26T01:01:42.682Z,1.44
2023-04-26T01:04:09.395Z,1.38
2023-04-26T01:06:38.414Z,1.19
2023-04-26T01:09:10.978Z,1.13
2023-04-26T01:11:38.561Z,1.06
2023-04-26T01:14:06.010Z,1.00
2023-04-26T01:16:33.164Z,0.94
2023-04-26T01:19:09.438Z,1.13
2023-04-26T01:21:36.444Z,1.25
2023-04-26T01:24:03.825Z,1.25
2023-04-26T01:26:31.100Z,1.38
2023-04-26T01:28:58.675Z,1.25
2023-04-26T01:31:25.513Z,1.25
2023-04-26T01:33:52.064Z,1.38
2023-04-26T01:36:18.711Z,1.50
2023-04-26T01:38:45.392Z,1.56
2023-04-26T01:41:12.416Z,1.44
2023-04-26T01:43:38.994Z,1.44
2023-04-26T01:46:05.907Z,1.44
2023-04-26T01:48:32.696Z,1.50
2023-04-26T01:50:59.381Z,1.44
2023-04-26T01:53:26.015Z,1.44
2023-04-26T01:55:52.545Z,1.25
2023-04-26T01:58:19.186Z,1.25
2023-04-26T02:00:45.980Z,1.38
2023-04-26T02:03:12.652Z,1.31
2023-04-26T02:05:39.388Z,1.06
2023-04-26T02:08:06.279Z,0.88
2023-04-26T02:10:33.584Z,0.69
2023-04-26T02:13:00.155Z,0.69
2023-04-26T02:15:26.714Z,0.50
2023-04-26T02:17:53.826Z,0.56
2023-04-26T02:20:20.644Z,0.63
2023-04-26T02:22:47.216Z,0.63
2023-04-26T02:25:13.783Z,0.50
2023-04-26T02:27:41.051Z,0.44
2023-04-26T02:30:08.312Z,0.44
2023-04-26T02:32:34.917Z,0.44
2023-04-26T02:35:01.539Z,0.38
2023-04-26T02:37:28.159Z,0.38
2023-04-26T02:39:54.757Z,0.31
2023-04-26T02:42:21.478Z,0.31
2023-04-26T02:44:48.131Z,0.31
2023-04-26T02:47:14.763Z,0.38
2023-04-26T02:49:41.350Z,0.31
2023-04-26T02:52:07.990Z,0.25
2023-04-26T02:54:34.575Z,0.19
2023-04-26T02:57:01.158Z,0.19
2023-04-26T02:59:27.732Z,0.13
2023-04-26T03:01:54.441Z,0.06
2023-04-26T03:04:21.255Z,0.00
2023-04-26T03:06:47.889Z,0.00
2023-04-26T03:09:14.490Z,-0.13
2023-04-26T03:11:41.137Z,-0.13
2023-04-26T03:14:07.709Z,0.00
2023-04-26T03:16:41.927Z,0.06
2023-04-26T03:19:08.640Z,0.19
2023-04-26T03:21:35.378Z,0.25
2023-04-26T03:24:01.979Z,0.19
2023-04-26T03:26:28.606Z,0.25
2023-04-26T03:28:55.757Z,0.13
2023-04-26T03:31:22.882Z,0.06
2023-04-26T03:33:49.736Z,0.06
2023-04-26T03:36:17.470Z,0.06
2023-04-26T03:38:44.070Z,0.00
2023-04-26T03:41:10.894Z,0.06
2023-04-26T03:43:37.455Z,0.06
2023-04-26T03:46:05.011Z,0.06
2023-04-26T03:48:31.703Z,0.06
2023-04-26T03:50:58.274Z,0.00
2023-04-26T03:53:24.894Z,0.06
2023-04-26T03:55:51.891Z,-0.06
2023-04-26T03:58:18.527Z,-0.13
2023-04-26T04:00:45.165Z,-0.19
2023-04-26T04:03:12.539Z,-0.13
2023-04-26T04:05:39.718Z,-0.19
2023-04-26T04:08:06.585Z,-0.19
2023-04-26T04:10:33.203Z,-0.19
2023-04-26T04:12:59.846Z,-0.06
2023-04-26T04:15:26.855Z,0.00
2023-04-26T04:17:53.520Z,-0.06
2023-04-26T04:20:21.378Z,-0.13
2023-04-26T04:22:48.021Z,0.00
2023-04-26T04:25:14.645Z,-0.06
2023-04-26T04:27:45.181Z,-0.06
2023-04-26T04:30:12.119Z,-0.06
2023-04-26T04:32:40.094Z,-0.13
2023-04-26T04:35:07.391Z,-0.06
2023-04-26T04:37:34.763Z,0.06
2023-04-26T04:40:01.620Z,-0.13
2023-04-26T04:42:28.304Z,-0.06
2023-04-26T04:44:56.034Z,0.00
2023-04-26T04:47:22.868Z,0.13
2023-04-26T04:49:49.469Z,0.25
2023-04-26T04:52:18.236Z,0.31
2023-04-26T04:54:45.555Z,0.50
2023-04-26T04:57:13.816Z,0.50
2023-04-26T04:59:40.427Z,0.50
2023-04-26T05:02:07.029Z,0.50
2023-04-26T05:04:34.571Z,0.50
2023-04-26T05:07:02.085Z,0.50
2023-04-26T05:09:28.687Z,0.56
2023-04-26T05:11:55.332Z,0.56
2023-04-26T05:14:21.951Z,0.63
2023-04-26T05:16:48.769Z,0.63
2023-04-26T05:19:15.599Z,0.56
2023-04-26T05:21:42.331Z,0.69
2023-04-26T05:24:08.908Z,0.81
2023-04-26T05:26:35.921Z,1.19
2023-04-26T05:29:02.606Z,1.50
2023-04-26T05:31:29.174Z,1.75
2023-04-26T05:33:56.012Z,1.81
2023-04-26T05:36:22.882Z,1.94
2023-04-26T05:38:49.547Z,2.13
2023-04-26T05:41:16.125Z,2.13
2023-04-26T05:43:42.734Z,2.19
2023-04-26T05:46:09.400Z,2.31
2023-04-26T05:48:36.100Z,2.50
2023-04-26T05:51:02.990Z,2.63
2023-04-26T05:53:29.549Z,2.81
2023-04-26T05:55:56.243Z,2.94
2023-04-26T05:58:22.857Z,3.19
2023-04-26T06:00:49.495Z,3.38
2023-04-26T06:03:16.656Z,3.50
2023-04-26T06:05:43.556Z,3.75
2023-04-26T06:08:10.118Z,4.00
2023-04-26T06:10:37.727Z,4.13
2023-04-26T06:13:04.528Z,4.38
2023-04-26T06:15:31.911Z,4.63
2023-04-26T06:17:58.565Z,4.69
2023-04-26T06:20:26.075Z,4.69
2023-04-26T06:22:52.653Z,4.75
2023-04-26T06:25:19.300Z,4.75
2023-04-26T06:27:45.987Z,4.88
2023-04-26T06:30:13.044Z,5.00
2023-04-26T06:32:41.257Z,5.00
2023-04-26T06:35:08.382Z,5.19
2023-04-26T06:37:35.110Z,5.38
2023-04-26T06:40:02.210Z,5.63
2023-04-26T06:42:28.820Z,5.81
2023-04-26T06:44:55.569Z,5.94
2023-04-26T06:47:22.252Z,6.06
2023-04-26T06:49:48.862Z,6.06
2023-04-26T06:52:15.928Z,6.19
2023-04-26T06:54:53.556Z,6.19
2023-04-26T06:57:23.433Z,6.25
2023-04-26T06:59:50.030Z,6.38
2023-04-26T07:02:16.733Z,6.50
2023-04-26T07:04:44.052Z,6.56
2023-04-26T07:07:13.293Z,6.69
2023-04-26T07:09:41.077Z,6.81
2023-04-26T07:12:07.791Z,6.94
2023-04-26T07:14:37.130Z,6.94
2023-04-26T07:17:05.186Z,6.88
2023-04-26T07:19:31.893Z,7.00
2023-04-26T07:21:58.617Z,6.88
2023-04-26T07:24:25.755Z,7.00
2023-04-26T07:26:52.358Z,7.06
2023-04-26T07:29:19.130Z,7.25
2023-04-26T07:31:46.272Z,7.38
2023-04-26T07:34:13.063Z,7.50
2023-04-26T07:36:39.628Z,7.50
2023-04-26T07:39:09.121Z,7.50
2023-04-26T07:41:36.099Z,7.50
2023-04-26T07:44:03.917Z,7.50
2023-04-26T07:46:30.552Z,7.50
2023-04-26T07:48:57.170Z,7.50
2023-04-26T07:51:23.720Z,7.50
2023-04-26T07:53:51.258Z,7.38
2023-04-26T07:56:18.075Z,7.38
2023-04-26T07:58:44.634Z,7.31
2023-04-26T08:01:11.898Z,7.56
2023-04-26T08:03:38.703Z,7.56
2023-04-26T08:06:05.804Z,7.94
2023-04-26T08:08:33.515Z,8.19
2023-04-26T08:11:00.534Z,8.38
2023-04-26T08:13:29.298Z,8.25
2023-04-26T08:15:56.281Z,8.00
2023-04-26T08:18:22.858Z,8.06
2023-04-26T08:20:49.593Z,8.19
2023-04-26T08:23:16.182Z,8.31
2023-04-26T08:25:43.129Z,8.25
2023-04-26T08:28:09.772Z,8.13
2023-04-26T08:30:36.443Z,8.00
2023-04-26T08:33:03.340Z,7.88
2023-04-26T08:35:30.048Z,7.88
2023-04-26T08:37:56.849Z,7.75
2023-04-26T08:40:25.262Z,7.75
2023-04-26T08:42:53.827Z,7.69
2023-04-26T08:45:21.894Z,7.69
2023-04-26T08:47:55.491Z,7.69
2023-04-26T08:50:23.482Z,7.63
2023-04-26T08:52:51.847Z,7.69
2023-04-26T08:55:20.258Z,7.63
2023-04-26T08:57:49.202Z,7.63
2023-04-26T09:00:19.793Z,7.50
2023-04-26T09:02:52.577Z,7.38
2023-04-26T09:05:27.159Z,7.31
2023-04-26T09:07:57.657Z,7.25
2023-04-26T09:10:24.859Z,7.25
2023-04-26T09:12:52.768Z,7.31
2023-04-26T09:15:22.214Z,7.25
2023-04-26T09:17:49.973Z,7.38
2023-04-26T09:20:25.979Z,7.38
2023-04-26T09:23:03.562Z,7.56
2023-04-26T09:25:31.806Z,7.50
2023-04-26T09:27:59.710Z,7.75
2023-04-26T09:30:28.158Z,7.94
2023-04-26T09:32:58.111Z,7.94
2023-04-26T09:35:26.988Z,8.00
2023-04-26T09:38:02.332Z,8.00
2023-04-26T09:40:35.839Z,8.19
2023-04-26T09:43:04.398Z,8.38
2023-04-26T09:45:33.434Z,8.44
2023-04-26T09:48:30.784Z,8.56
2023-04-26T09:51:03.630Z,8.63
2023-04-26T09:53:34.683Z,8.63
2023-04-26T09:56:21.035Z,8.81
2023-04-26T09:58:47.574Z,8.88
2023-04-26T10:01:19.300Z,8.94
2023-04-26T10:03:46.971Z,9.19
2023-04-26T10:06:13.822Z,9.13
2023-04-26T10:08:40.420Z,9.19
2023-04-26T10:11:11.436Z,9.19
2023-04-26T10:13:39.627Z,9.06
2023-04-26T10:16:06.836Z,9.13
2023-04-26T10:18:34.321Z,9.13
2023-04-26T10:21:29.840Z,9.13
2023-04-26T10:23:56.706Z,9.13
2023-04-26T10:26:56.888Z,9.00
2023-04-26T10:29:25.959Z,8.94
2023-04-26T10:32:02.042Z,8.94
2023-04-26T10:34:33.857Z,9.00
2023-04-26T10:37:26.780Z,9.00
2023-04-26T10:40:23.551Z,8.75
2023-04-26T10:42:50.181Z,8.56
2023-04-26T10:45:28.478Z,8.69
2023-04-26T10:48:20.271Z,8.69
2023-04-26T10:51:02.182Z,8.75
2023-04-26T10:53:39.007Z,8.69
2023-04-26T10:56:05.917Z,8.69
2023-04-26T10:58:34.946Z,8.94
2023-04-26T11:01:13.225Z,9.00
2023-04-26T11:04:01.753Z,9.06
2023-04-26T11:06:47.507Z,9.06
2023-04-26T11:09:36.989Z,9.13
2023-04-26T11:12:12.336Z,9.13
2023-04-26T11:14:41.750Z,9.31
2023-04-26T11:17:12.497Z,9.00
2023-04-26T11:19:40.703Z,8.88
2023-04-26T11:22:08.176Z,9.13
2023-04-26T11:24:36.790Z,9.06
2023-04-26T11:27:10.857Z,8.94
2023-04-26T11:29:38.261Z,9.06
2023-04-26T11:32:05.673Z,9.13
2023-04-26T11:34:34.359Z,9.25
2023-04-26T11:37:05.500Z,9.25
2023-04-26T11:39:32.988Z,9.13
2023-04-26T11:42:11.158Z,9.31
2023-04-26T11:44:39.817Z,9.31
2023-04-26T11:47:07.978Z,9.38
2023-04-26T11:49:38.074Z,9.50
2023-04-26T11:52:06.533Z,9.44
2023-04-26T11:54:35.798Z,9.50
2023-04-26T11:57:16.697Z,9.81
2023-04-26T11:59:44.399Z,10.13
2023-04-26T12:02:12.014Z,10.06
2023-04-26T12:04:42.233Z,10.31
2023-04-26T12:07:09.544Z,10.44
2023-04-26T12:09:41.684Z,9.88
2023-04-26T12:12:08.361Z,9.75
2023-04-26T12:14:37.152Z,9.63
2023-04-26T12:17:06.348Z,9.38
2023-04-26T12:19:38.215Z,9.19
2023-04-26T12:22:06.005Z,9.25
2023-04-26T12:24:34.627Z,9.19
2023-04-26T12:27:02.935Z,9.13
2023-04-26T12:29:30.836Z,9.13
2023-04-26T12:31:58.757Z,9.13
2023-04-26T12:34:25.711Z,9.06
2023-04-26T12:36:52.349Z,8.81
2023-04-26T12:39:19.019Z,8.88
2023-04-26T12:41:46.525Z,8.88
2023-04-26T12:44:14.320Z,8.94
2023-04-26T12:46:41.196Z,9.00
2023-04-26T12:49:07.893Z,9.00
2023-04-26T12:51:34.537Z,8.94
2023-04-26T12:54:01.239Z,9.06
2023-04-26T12:56:29.246Z,9.25
2023-04-26T12:58:56.160Z,9.44
2023-04-26T13:01:22.925Z,9.69
2023-04-26T13:03:49.821Z,9.81
2023-04-26T13:06:16.712Z,9.88
2023-04-26T13:08:43.363Z,9.88
2023-04-26T13:11:10.004Z,9.88
2023-04-26T13:13:43.928Z,9.50
2023-04-26T13:16:12.455Z,9.63
2023-04-26T13:18:40.171Z,9.56
2023-04-26T13:21:07.134Z,9.63
2023-04-26T13:23:33.696Z,9.63
2023-04-26T13:26:00.288Z,9.63
2023-04-26T13:28:27.198Z,9.50
2023-04-26T13:30:53.826Z,9.25
2023-04-26T13:33:21.283Z,9.06
2023-04-26T13:35:48.233Z,9.06
2023-04-26T13:38:16.027Z,8.94
2023-04-26T13:40:43.790Z,8.88
2023-04-26T13:43:10.519Z,8.88
2023-04-26T13:45:37.138Z,8.88
2023-04-26T13:48:04.027Z,8.88
2023-04-26T13:50:30.727Z,8.94
2023-04-26T13:52:57.431Z,9.00
2023-04-26T13:55:24.440Z,9.00
2023-04-26T13:57:51.053Z,9.13
2023-04-26T14:00:18.014Z,9.13
2023-04-26T14:02:44.810Z,9.44
2023-04-26T14:05:11.742Z,9.56
2023-04-26T14:07:40.526Z,9.75
2023-04-26T14:10:07.870Z,10.00
2023-04-26T14:12:35.033Z,10.13
2023-04-26T14:15:05.618Z,10.13
2023-04-26T14:17:33.090Z,10.00
2023-04-26T14:19:59.685Z,10.06
2023-04-26T14:22:27.144Z,9.81
2023-04-26T14:24:53.815Z,9.94
2023-04-26T14:27:20.478Z,9.81
2023-04-26T14:29:47.173Z,10.00
2023-04-26T14:32:14.517Z,10.06
2023-04-26T14:34:41.960Z,10.06
2023-04-26T14:37:09.127Z,10.06
2023-04-26T14:39:35.785Z,10.06
2023-04-26T14:42:03.337Z,10.00
2023-04-26T14:44:30.463Z,10.00
2023-04-26T14:46:57.050Z,9.94
2023-04-26T14:49:23.794Z,9.94
2023-04-26T14:51:53.036Z,10.00
2023-04-26T14:54:20.026Z,10.06
2023-04-26T14:56:46.797Z,9.94
2023-04-26T14:59:13.460Z,9.94
2023-04-26T15:01:40.213Z,9.88
2023-04-26T15:04:07.128Z,9.81
2023-04-26T15:06:34.325Z,9.75
2023-04-26T15:09:01.334Z,9.75
2023-04-26T15:11:28.003Z,9.69
2023-04-26T15:13:54.568Z,9.63
2023-04-26T15:16:21.746Z,9.63
2023-04-26T15:18:49.001Z,9.50
2023-04-26T15:21:19.321Z,9.50
2023-04-26T15:23:45.940Z,9.50
2023-04-26T15:26:12.509Z,9.50
2023-04-26T15:28:39.293Z,9.56
2023-04-26T15:31:09.718Z,9.63
2023-04-26T15:33:36.737Z,9.63
2023-04-26T15:36:03.553Z,9.63
2023-04-26T15:38:30.165Z,9.50
2023-04-26T15:40:56.774Z,9.50
2023-04-26T15:43:23.392Z,9.63
2023-04-26T15:45:50.261Z,9.63
2023-04-26T15:48:17.025Z,9.50
2023-04-26T15:50:44.866Z,9.50
2023-04-26T15:53:11.751Z,9.50
2023-04-26T15:55:38.318Z,9.56
2023-04-26T15:58:04.943Z,9.56
2023-04-26T16:00:32.298Z,9.44
2023-04-26T16:02:59.168Z,9.56
2023-04-26T16:05:25.878Z,9.50
2023-04-26T16:07:52.444Z,9.50
2023-04-26T16:10:19.375Z,9.56
2023-04-26T16:12:46.615Z,9.63
2023-04-26T16:15:13.476Z,9.69
2023-04-26T16:17:40.050Z,9.69
2023-04-26T16:20:08.216Z,9.63
2023-04-26T16:22:35.779Z,9.56
2023-04-26T16:25:06.665Z,9.50
2023-04-26T16:27:33.240Z,9.44
2023-04-26T16:29:59.984Z,9.25
2023-04-26T16:32:26.674Z,9.13
2023-04-26T16:34:53.499Z,9.06
2023-04-26T16:37:20.134Z,9.00
2023-04-26T16:39:47.002Z,9.00
2023-04-26T16:42:13.663Z,9.00
2023-04-26T16:44:40.760Z,9.00
2023-04-26T16:47:07.430Z,8.94
2023-04-26T16:49:34.303Z,9.00
2023-04-26T16:52:01.113Z,9.06
2023-04-26T16:54:28.301Z,9.00
2023-04-26T16:56:54.924Z,9.06
2023-04-26T16:59:21.723Z,9.13
2023-04-26T17:01:48.307Z,9.06
2023-04-26T17:04:15.070Z,9.06
2023-04-26T17:06:41.716Z,9.00
2023-04-26T17:09:08.707Z,9.00
2023-04-26T17:11:37.328Z,9.00
2023-04-26T17:14:04.590Z,9.06
2023-04-26T17:16:31.798Z,8.94
2023-04-26T17:18:58.631Z,9.00
2023-04-26T17:21:25.500Z,8.94
2023-04-26T17:23:52.548Z,9.00
2023-04-26T17:26:19.253Z,8.88
2023-04-26T17:28:45.831Z,8.88
2023-04-26T17:31:12.599Z,8.88
2023-04-26T17:33:39.218Z,8.94
2023-04-26T17:36:06.343Z,8.75
2023-04-26T17:38:33.046Z,8.75
2023-04-26T17:40:59.926Z,8.69
2023-04-26T17:43:26.468Z,8.56
2023-04-26T17:45:53.347Z,8.69
2023-04-26T17:48:20.157Z,8.56
2023-04-26T17:50:46.931Z,8.50
2023-04-26T17:53:13.601Z,8.38
2023-04-26T17:55:40.555Z,8.44
2023-04-26T17:58:07.933Z,8.38
2023-04-26T18:00:34.612Z,8.44
2023-04-26T18:03:04.157Z,8.44
2023-04-26T18:05:31.820Z,8.50
2023-04-26T18:07:58.788Z,8.38
2023-04-26T18:10:25.445Z,8.31
2023-04-26T18:12:52.013Z,8.25
2023-04-26T18:15:18.769Z,8.19
2023-04-26T18:17:45.401Z,8.13
2023-04-26T18:20:13.170Z,8.13
2023-04-26T18:22:40.441Z,8.13
2023-04-26T18:25:07.628Z,8.06
2023-04-26T18:27:34.373Z,8.00
2023-04-26T18:30:01.246Z,7.94
2023-04-26T18:32:27.895Z,7.81
2023-04-26T18:34:54.556Z,7.81
2023-04-26T18:37:21.120Z,7.81
2023-04-26T18:39:48.724Z,7.81
2023-04-26T18:42:15.655Z,7.75
2023-04-26T18:44:42.320Z,7.81
2023-04-26T18:47:08.905Z,7.81
2023-04-26T18:49:35.561Z,7.75
2023-04-26T18:52:02.211Z,7.69
2023-04-26T18:54:30.911Z,7.63
2023-04-26T18:56:57.536Z,7.56
2023-04-26T18:59:24.180Z,7.38
2023-04-26T19:01:50.775Z,7.44
2023-04-26T19:04:17.637Z,7.44
2023-04-26T19:06:44.409Z,7.50
2023-04-26T19:09:11.793Z,7.38
2023-04-26T19:11:38.844Z,7.31
2023-04-26T19:14:05.686Z,7.31
2023-04-26T19:16:32.394Z,7.31
2023-04-26T19:18:59.148Z,7.25
2023-04-26T19:21:26.710Z,7.19
2023-04-26T19:23:53.343Z,7.13
2023-04-26T19:26:19.977Z,7.00
2023-04-26T19:28:46.696Z,6.94
2023-04-26T19:31:13.742Z,7.00
2023-04-26T19:33:40.597Z,7.00
2023-04-26T19:36:09.025Z,6.88
2023-04-26T19:38:35.685Z,6.81
2023-04-26T19:41:02.476Z,6.81
2023-04-26T19:43:29.225Z,6.69
2023-04-26T19:45:55.879Z,6.63
2023-04-26T19:48:22.536Z,6.69
2023-04-26T19:50:49.073Z,6.56
2023-04-26T19:53:15.872Z,6.50
2023-04-26T19:55:43.309Z,6.44
2023-04-26T19:58:12.995Z,6.44
2023-04-26T20:00:40.484Z,6.44
2023-04-26T20:03:07.625Z,6.38
2023-04-26T20:05:34.593Z,6.19
2023-04-26T20:08:01.741Z,6.06
2023-04-26T20:10:33.414Z,5.88
2023-04-26T20:13:00.701Z,5.69
2023-04-26T20:15:27.851Z,5.69
2023-04-26T20:17:54.999Z,5.75
2023-04-26T20:20:21.871Z,5.81
2023-04-26T20:22:48.508Z,5.81
2023-04-26T20:25:15.376Z,5.63
2023-04-26T20:27:41.958Z,5.44
2023-04-26T20:30:09.064Z,5.19
2023-04-26T20:32:35.657Z,4.88
2023-04-26T20:35:02.352Z,4.88
2023-04-26T20:37:29.004Z,4.81
2023-04-26T20:39:55.611Z,4.75
2023-04-26T20:42:23.059Z,4.88
2023-04-26T20:44:49.661Z,4.81
2023-04-26T20:47:16.621Z,4.63
2023-04-26T20:49:43.290Z,4.56
2023-04-26T20:52:10.076Z,4.31
2023-04-26T20:54:36.673Z,4.38
2023-04-26T20:57:03.910Z,4.38
2023-04-26T20:59:30.845Z,4.38
2023-04-26T21:01:57.649Z,4.13
2023-04-26T21:04:24.752Z,4.13
2023-04-26T21:06:51.594Z,4.13
2023-04-26T21:09:18.239Z,4.06
2023-04-26T21:11:44.855Z,3.81
2023-04-26T21:14:13.623Z,3.63
2023-04-26T21:16:40.561Z,3.56
2023-04-26T21:19:08.067Z,3.50
2023-04-26T21:21:35.380Z,3.56
2023-04-26T21:24:03.201Z,3.38
2023-04-26T21:26:30.035Z,3.44
2023-04-26T21:28:56.616Z,3.50
2023-04-26T21:31:23.488Z,3.44
2023-04-26T21:33:50.718Z,3.44
2023-04-26T21:36:17.420Z,3.38
2023-04-26T21:38:44.107Z,3.31
2023-04-26T21:41:10.694Z,3.19
2023-04-26T21:43:37.273Z,3.19
2023-04-26T21:46:03.894Z,3.19
2023-04-26T21:48:30.766Z,3.06
2023-04-26T21:50:57.425Z,2.94
2023-04-26T21:53:24.116Z,2.94
2023-04-26T21:55:55.071Z,2.88
2023-04-26T21:58:22.743Z,2.88
2023-04-26T22:00:50.701Z,2.88
2023-04-26T22:03:18.206Z,2.88
2023-04-26T22:05:45.377Z,2.75
2023-04-26T22:08:11.970Z,2.63
2023-04-26T22:10:38.606Z,2.50
2023-04-26T22:13:05.437Z,2.44
2023-04-26T22:15:32.253Z,2.44
2023-04-26T22:17:59.010Z,2.44
2023-04-26T22:20:26.490Z,2.31
2023-04-26T22:22:53.770Z,2.31
2023-04-26T22:25:20.686Z,2.44
2023-04-26T22:27:47.699Z,2.31
2023-04-26T22:30:24.950Z,2.25
2023-04-26T22:32:55.394Z,2.25
2023-04-26T22:35:24.033Z,2.19
2023-04-26T22:37:51.628Z,2.13
2023-04-26T22:40:18.632Z,2.13
2023-04-26T22:42:45.388Z,1.94
2023-04-26T22:45:12.853Z,1.94
2023-04-26T22:47:40.842Z,1.75
2023-04-26T22:50:08.108Z,1.81
2023-04-26T22:52:35.799Z,1.88
2023-04-26T22:55:02.690Z,1.88
2023-04-26T22:57:31.004Z,1.81
2023-04-26T22:59:57.733Z,1.81
2023-04-26T23:02:24.491Z,1.63
2023-04-26T23:04:51.422Z,1.63
2023-04-26T23:07:18.146Z,1.56
2023-04-26T23:09:44.826Z,1.56
2023-04-26T23:12:11.509Z,1.56
2023-04-26T23:14:38.088Z,1.63
2023-04-26T23:17:05.447Z,1.56
2023-04-26T23:19:33.032Z,1.44
2023-04-26T23:22:00.077Z,1.38
2023-04-26T23:24:26.983Z,1.44
2023-04-26T23:26:53.740Z,1.31
2023-04-26T23:29:20.527Z,1.31
2023-04-26T23:31:47.218Z,1.31
2023-04-26T23:34:13.899Z,1.38
2023-04-26T23:36:41.067Z,1.25
2023-04-26T23:39:07.746Z,1.25
2023-04-26T23:41:34.382Z,1.13
2023-04-26T23:44:00.951Z,1.13
2023-04-26T23:46:27.572Z,1.06
2023-04-26T23:48:54.241Z,0.94
2023-04-26T23:51:21.008Z,0.94
2023-04-26T23:53:47.617Z,0.94
2023-04-26T23:56:14.247Z,0.94
2023-04-26T23:58:41.065Z,0.81
